Flight Track Log - Related Links

Times and Time Zones

All times are in EST time to prevent confusion due to time zone crossing. See the N137TK flight status page for this flight to view local times or setup timezone preferences in your user account.

Time Position Orientation Groundspeed Altitude Reporting Facility
EST Latitude Longitude Course Direction KTS MPH feet Rate Location/Type
Fri 16:25:18 35.0819 -82.6022 178° South 195 224 21,000  Level Atlanta Center
Fri 16:26:18 35.0317 -82.6006 178° South 190 219 22,500 1,400 Climbing Atlanta Center
Fri 16:27:18 34.9775 -82.6039 183° South 190 219 23,800 1,350 Climbing Atlanta Center
Fri 16:28:18 34.9275 -82.5997 176° South 190 219 25,200 1,100 Climbing Atlanta Center
Fri 16:29:18 34.8731 -82.5956 176° South 190 219 26,000 400 Climbing Atlanta Center
Fri 16:30:18 34.8083 -82.5917 177° South 212 244 26,000  Level Atlanta Center
Fri 16:31:18 34.7375 -82.5931 181° South 239 275 26,000  Level Atlanta Center
Fri 16:32:18 34.6644 -82.5917 179° South 255 293 26,000  Level Atlanta Center
Fri 16:33:18 34.5872 -82.5906 179° South 271 312 26,000  Level Atlanta Center
Fri 16:34:18 34.5119 -82.5867 178° South 276 318 26,000  Level Atlanta Center
Fri 16:35:18 34.4347 -82.5856 179° South 276 318 26,000  Level Atlanta Center
Fri 16:36:18 34.3594 -82.5844 179° South 271 312 26,000  Level Atlanta Center
Fri 16:37:18 34.2822 -82.5806 178° South 271 312 26,000  Level Atlanta Center
Fri 16:38:18 34.2050 -82.5769 178° South 271 312 26,000  Level Atlanta Center
Fri 16:39:18 34.1217 -82.5758 179° South 271 312 26,000  Level Atlanta Center
Fri 16:40:18 34.0444 -82.5747 179° South 271 312 26,000  Level Atlanta Center
Fri 16:41:18 33.9756 -82.5733 179° South 271 312 26,000  Level Atlanta Center
Fri 16:42:18 33.9003 -82.5722 179° South 271 312 26,000  Level Atlanta Center
Fri 16:43:18 33.8208 -82.5686 178° South 277 319 26,000  Level Atlanta Center
Fri 16:44:18 33.7561 -82.5647 177° South 260 299 26,000  Level Atlanta Center
Fri 16:45:18 33.6811 -82.5633 179° South 259 298 26,000  Level Atlanta Center
Fri 16:46:18 33.5956 -82.5650 179° South 264 304 26,000  Level Atlanta Center
Fri 16:47:18 33.5244 -82.5611 177° South 264 304 26,000  Level Atlanta Center
Fri 16:48:18 33.4514 -82.5600 179° South 269 310 26,000  Level Atlanta Center
Fri 16:49:18 33.3825 -82.5586 179° South 256 295 26,000  Level Atlanta Center
Fri 16:50:18 33.3094 -82.5547 177° South 261 300 26,000  Level Atlanta Center
Fri 16:51:18 33.2406 -82.5536 179° South 255 293 26,000  Level Atlanta Center
Fri 16:52:18 33.1694 -82.5522 179° South 255 293 26,000  Level Atlanta Center
Fri 16:53:18 33.0986 -82.5486 178° South 255 293 26,000  Level Atlanta Center
Fri 16:54:18 33.0275 -82.5497 181° South 255 293 26,000  Level Atlanta Center
Fri 16:55:18 32.9606 -82.5458 177° South 255 293 26,000  Level Atlanta Center
Fri 16:57:05 32.8361 -82.5439 179° South 255 293 26,000  Level Jacksonville Center
Fri 16:58:06 32.7653 -82.5392 177° South 255 293 26,000  Level Jacksonville Center
Fri 16:59:06 32.6942 -82.5347 177° South 255 293 26,000  Level Jacksonville Center
Fri 17:00:05 32.6211 -82.5375 182° South 255 293 26,000  Level Jacksonville Center
Fri 17:01:05 32.5522 -82.5303 175° South 255 293 26,000  Level Jacksonville Center
Fri 17:02:05 32.4814 -82.5356 184° South 255 293 26,000  Level Jacksonville Center
Fri 17:03:05 32.4103 -82.5283 175° South 255 293 26,000  Level Jacksonville Center
Fri 17:04:05 32.3414 -82.5286 180° South 255 293 26,000  Level Jacksonville Center
Fri 17:05:05 32.2683 -82.5264 179° South 255 293 26,000  Level Jacksonville Center
Fri 17:06:06 32.1994 -82.5244 179° South 250 288 26,000  Level Jacksonville Center
Fri 17:07:05 32.1283 -82.5222 178° South 250 288 26,000  Level Jacksonville Center
Fri 17:08:06 32.0575 -82.5200 178° South 250 288 26,000  Level Jacksonville Center
Fri 17:09:05 31.9864 -82.5203 180° South 255 293 26,000  Level Jacksonville Center
Fri 17:10:05 31.9175 -82.5206 180° South 255 293 26,000  Level Jacksonville Center
Fri 17:11:06 31.8486 -82.5158 177° South 255 293 26,000  Level Jacksonville Center
Fri 17:12:06 31.7756 -82.5139 179° South 255 293 26,000  Level Jacksonville Center
Fri 17:13:05 31.7067 -82.5142 180° South 255 293 26,000  Level Jacksonville Center
Fri 17:14:05 31.6314 -82.5119 179° South 255 293 26,000  Level Jacksonville Center
Fri 17:15:06 31.5625 -82.5097 178° South 255 293 26,000  Level Jacksonville Center
Fri 17:16:06 31.4872 -82.4956 171° South 255 293 26,000  Level Jacksonville Center
Fri 17:17:05 31.4142 -82.4739 166° South 262 302 26,000  Level Jacksonville Center
Fri 17:18:05 31.3472 -82.4547 166° South 270 311 26,000  Level Jacksonville Center
Fri 17:19:05 31.2722 -82.4356 168° South 276 318 26,000  Level Jacksonville Center
Fri 17:20:06 31.1989 -82.4164 167° South 276 318 26,000  Level Jacksonville Center
Fri 17:21:06 31.1258 -82.3950 166° South 276 318 26,000  Level Jacksonville Center
Fri 17:22:06 31.0483 -82.3736 167° South 281 323 26,000  Level Jacksonville Center
Fri 17:23:05 30.9711 -82.3522 167° South 281 323 26,000  Level Jacksonville Center
Fri 17:24:06 30.8958 -82.3308 166° South 281 323 26,000  Level Jacksonville Center
Fri 17:25:05 30.8186 -82.3119 168° South 281 323 26,000  Level Jacksonville Center
Fri 17:26:06 30.7433 -82.2883 165° South 281 323 26,000  Level Jacksonville Center
Fri 17:27:06 30.6681 -82.2669 166° South 281 323 26,000  Level Jacksonville Center
Fri 17:28:05 30.5886 -82.2458 167° South 281 323 26,000  Level Jacksonville Center
Fri 17:29:05 30.5047 -82.2200 165° South 281 323 26,000  Level Jacksonville Center
Fri 17:30:05 30.4275 -82.1964 165° South 281 323 26,000  Level Jacksonville Center
Fri 17:31:05 30.3522 -82.1753 166° South 281 323 26,000  Level Jacksonville Center
Fri 17:32:05 30.2769 -82.1564 168° South 281 323 26,000  Level Jacksonville Center
Fri 17:33:06 30.1994 -82.1356 167° South 281 323 26,000  Level Jacksonville Center
Fri 17:34:05 30.1222 -82.1194 170° South 276 318 26,000  Level Jacksonville Center
Fri 17:35:05 30.0469 -82.1056 171° South 276 318 26,000  Level Jacksonville Center
Fri 17:36:06 29.9781 -82.0917 170° South 276 318 26,000  Level Jacksonville Center
Fri 17:37:05 29.9006 -82.0781 171° South 276 318 26,000  Level Jacksonville Center
Fri 17:38:05 29.8253 -82.0619 169° South 276 318 26,000  Level Jacksonville Center
Fri 17:39:06 29.7375 -82.0411 168° South 276 318 26,000  Level Jacksonville Center
Fri 17:40:06 29.6581 -82.0322 174° South 281 323 26,000  Level Jacksonville Center
Fri 17:41:05 29.5808 -82.0161 170° South 281 323 26,000  Level Jacksonville Center
Fri 17:42:06 29.5033 -82.0003 170° South 281 323 26,000  Level Jacksonville Center
Fri 17:43:05 29.4239 -81.9817 168° South 286 329 26,000 -200 Level Jacksonville Center
Fri 17:44:06 29.3444 -81.9683 172° South 286 329 25,600 -496 Descending Jacksonville Center
Fri 17:45:06 29.2611 -81.9522 170° South 297 342 25,000 -222 Descending Jacksonville Center
Fri 17:46:48 29.1333 -81.9211 168° South 297 342 25,000  Level Miami Center
Fri 17:47:48 29.0525 -81.9056 170° South 297 342 25,000  Level Miami Center
Fri 17:48:48 28.9739 -81.8900 170° South 292 336 25,000  Level Miami Center
Fri 17:49:48 28.8950 -81.8747 170° South 292 336 25,000  Level Miami Center
Fri 17:50:48 28.8100 -81.8614 172° South 287 330 25,000  Level Miami Center
Fri 17:51:48 28.7314 -81.8436 169° South 287 330 25,000  Level Miami Center
Fri 17:52:48 28.6567 -81.8308 171° South 287 330 25,000  Level Miami Center
Fri 17:53:48 28.5803 -81.8133 169° South 287 330 25,000  Level Miami Center
Fri 17:54:48 28.5036 -81.7956 168° South 287 330 25,000  Level Miami Center
Fri 17:55:48 28.4272 -81.7733 166° South 287 330 25,000  Level Miami Center
Fri 17:56:48 28.3631 -81.7611 170° South 287 330 25,000 -350 Level Miami Center
Fri 17:57:48 28.2739 -81.7456 171° South 293 337 24,300 -500 Descending Miami Center
Fri 17:58:48 28.1931 -81.7256 168° South 298 343 24,000 -650 Descending Miami Center
Fri 17:59:48 28.1081 -81.7100 171° South 303 349 23,000 -1,000 Descending Miami Center
Fri 18:00:48 28.0231 -81.6922 170° South 308 354 22,000 -1,000 Descending Miami Center
Fri 18:01:48 27.9361 -81.6744 170° South 313 360 21,000 -1,000 Descending Miami Center
Fri 18:02:48 27.8492 -81.6544 169° South 313 360 20,000 -1,050 Descending Miami Center
Fri 18:03:48 27.7600 -81.6367 170° South 313 360 18,900 -1,000 Descending Miami Center
Fri 18:04:48 27.6833 -81.6169 167° South 313 360 18,000 -750 Descending Miami Center
Fri 18:05:48 27.6003 -81.6042 172° South 313 360 17,400 -800 Descending Miami Center
Fri 18:06:48 27.5192 -81.5983 176° South 313 360 16,400 -500 Descending Miami Center
Fri 18:07:48 27.4458 -81.6094 188° South 291 335 16,400 -50 Level Miami Center
Fri 18:08:48 27.3744 -81.6183 186° South 273 314 16,300 -500 Descending Miami Center
Fri 18:09:48 27.3011 -81.6314 189° South 267 307 15,400 -950 Descending Miami Center
Fri 18:10:48 27.2236 -81.6378 184° South 272 313 14,400 -1,000 Descending Miami Center
Fri 18:11:48 27.1481 -81.6486 187° South 278 320 13,400 -1,000 Descending Miami Center
Fri 18:12:48 27.0706 -81.6594 187° South 278 320 12,400 -1,050 Descending Miami Center
Fri 18:13:48 26.9867 -81.6697 186° South 273 314 11,300 -1,000 Descending Miami Center
Fri 18:14:48 26.9094 -81.6714 181° South 273 314 10,400 -950 Descending Miami Center
Fri 18:15:48 26.8325 -81.6564 170° South 273 314 9,400 -1,000 Descending Miami Center
Fri 18:16:48 26.7539 -81.6417 171° South 278 320 8,400 -1,000 Descending Miami Center
Fri 18:17:48 26.6869 -81.6436 181° South 277 319 7,400 -1,000 Descending Miami Center
Fri 18:18:48 26.6153 -81.6639 194° South 272 313 6,400 -1,000 Descending Miami Center
Fri 18:19:48 26.5458 -81.6797 192° South 262 302 5,400 -950 Descending Miami Center
Fri 18:20:48 26.4786 -81.6953 192° South 257 296 4,500 -900 Descending Miami Center
Fri 18:21:48 26.4131 -81.7206 199° South 252 290 3,600 -900 Descending Miami Center
Fri 18:23:00 26.3277 -81.7355 189° South  Level FlightAware Approximate
Fri 18:30:00 26.1500 -81.7667 186° South  Level FlightAware Approximate
Fri 18:31:00 26.1524 -81.7756 186° South  Level Estimated
Fri 18:32:00 26.1524 -81.7756 186° South  Level Estimated
Fri 18:33:00 26.1524 -81.7756 186° South  Level Estimated
Fri 18:34:00 26.1524 -81.7756 186° South  Level Estimated
Fri 18:35:00 26.1524 -81.7756 186° South  Level Estimated
Fri 18:36:00 26.1524 -81.7756 186° South  Level Estimated

Login

Don't have an account? Register now (free) for customized features, flight alerts, and more!